首页
METAR-TAF:

METAR-TAF

机场 :

丹吉尔, 弗吉尼亚州, 美国

纬度: 37-49-31N, 经度: 075-59-52W, 海拔: 2米

当前天气观测

该预报发布于21分钟前的13:56 UTC
风速13节,风向东转东北,有时为19节阵风
温度 26°C
湿度 89%
气压 1018 hPa
能見度: 16.1公里
多云层高于1000英尺
多云层高于1700英尺
阴天层高于10000英尺

METAR: KTGI 201356Z AUTO 06013G19KT 10SM BKN010 BKN017 OVC100 26/24 A3005 RMK AO1

时间: 10:17 (14:17 UTC)


TAF: 丢失

超过4000个机场的气象观测和天气预报(METAR&TAF报告)。

可查询的气象台以黄色和红色小点在地图上表示。

将鼠标移到小点上方,可查看气象台名称。

然后点击查看天气观测和预报。

如需切换地图:点击带黑十字的绿色按钮放大地图;点击带横线的绿色按钮缩小地图;或者点击绿色箭头查看邻近地区的地图。


METAR-TAF: